MKJP/KIN METAR and TAF weather

Enter ICAO airport designator
Station Type Date Time Source
MKJP METAR 2019/10/15 04:00 UTC NOAA

MKJP 150400Z 01006KT 9999 FEW022 28/22 Q1014


Station Type Date Time Source
MKJP Decoded METAR 2019/10/15 04:00 UTC NOAA

Kingston / Norman Manley, Jamaica (MKJP) 17-56N 076-47W 14M
Oct 15, 2019 - 12:00 AM EDT / 2019.10.15 0400 UTC
Wind: from the N (010 degrees) at 7 MPH (6 KT):0
Visibility: greater than 7 mile(s):0
Sky conditions: mostly clear
Temperature: 82 F (28 C)
Dew Point: 71 F (22 C)
Relative Humidity: 69%
Pressure (altimeter): 29.94 in. Hg (1014 hPa)
ob: MKJP 150400Z 01006KT 9999 FEW022 28/22 Q1014
cycle: 4

Station Type Date Time Source
MKJP TAF 2019/10/14 18:27 UTC NOAA

TAF TAF MKJP 141715Z 1418/1518 16015KT 9999 FEW020 SCT022CB BKN090
TEMPO 1418/1423 6000 TSRA SCT018 BKN020CB
BECMG 1501/1503 35005KT 8000 SHRA SCT020 SCT022CB
BECMG 1515/1517 15017KT

Example: see airport list